createdAt,value
2018-07-27T00:00:18.649Z,0
2018-07-27T00:01:18.115Z,0
2018-07-27T00:02:18.111Z,0
2018-07-27T00:03:18.107Z,0
2018-07-27T00:04:18.626Z,0
2018-07-27T00:05:18.359Z,0
2018-07-27T00:06:18.347Z,0
2018-07-27T00:07:18.342Z,0
2018-07-27T00:08:18.075Z,0
2018-07-27T00:09:17.803Z,0
2018-07-27T00:10:18.333Z,0
2018-07-27T00:11:18.058Z,0
2018-07-27T00:12:18.312Z,0
2018-07-27T00:13:18.324Z,0
2018-07-27T00:14:18.240Z,0
2018-07-27T00:15:17.766Z,0
2018-07-27T00:16:18.281Z,0
2018-07-27T00:17:17.755Z,0
2018-07-27T00:18:18.010Z,0
2018-07-27T00:19:17.998Z,0
2018-07-27T00:20:18.268Z,0
2018-07-27T00:21:17.728Z,0
2018-07-27T00:22:17.986Z,0
2018-07-27T00:23:18.512Z,0
2018-07-27T00:24:17.976Z,0
2018-07-27T00:25:17.961Z,0
2018-07-27T00:26:18.225Z,0
2018-07-27T00:27:18.476Z,0
2018-07-27T00:28:18.221Z,0
2018-07-27T00:29:18.204Z,0
2018-07-27T00:30:17.938Z,0
2018-07-27T00:31:17.936Z,0
2018-07-27T00:32:18.198Z,0
2018-07-27T00:33:18.178Z,0
2018-07-27T00:34:17.913Z,0
2018-07-27T00:35:17.898Z,0
2018-07-27T00:36:17.893Z,0
2018-07-27T00:37:18.418Z,0
2018-07-27T00:38:17.615Z,0
2018-07-27T00:39:18.403Z,0
2018-07-27T00:40:18.137Z,0
2018-07-27T00:41:18.132Z,0
2018-07-27T00:42:18.404Z,0
2018-07-27T00:43:17.588Z,0
2018-07-27T00:44:18.115Z,0
2018-07-27T00:45:17.832Z,0
2018-07-27T00:46:18.089Z,0
2018-07-27T00:47:18.347Z,0
2018-07-27T00:48:18.088Z,0
2018-07-27T00:49:18.067Z,0
2018-07-27T00:50:18.066Z,0
2018-07-27T00:51:17.793Z,0
2018-07-27T00:52:18.057Z,0
2018-07-27T00:53:17.525Z,0
2018-07-27T00:54:18.048Z,0
2018-07-27T00:55:17.772Z,0
2018-07-27T00:56:18.029Z,0
2018-07-27T00:57:17.759Z,0
2018-07-27T00:58:17.750Z,0
2018-07-27T00:59:18.014Z,0
2018-07-27T01:00:17.993Z,0
2018-07-27T01:01:17.995Z,0
2018-07-27T01:02:17.983Z,0
2018-07-27T01:03:17.719Z,0
2018-07-27T01:04:17.982Z,0
2018-07-27T01:05:17.701Z,0
2018-07-27T01:06:17.709Z,0
2018-07-27T01:07:17.959Z,0
2018-07-27T01:08:18.208Z,0
2018-07-27T01:09:17.674Z,0
2018-07-27T01:10:17.670Z,0
2018-07-27T01:11:17.662Z,0
2018-07-27T01:12:17.918Z,0
2018-07-27T01:13:17.922Z,0
2018-07-27T01:14:17.652Z,0
2018-07-27T01:15:17.916Z,0
2018-07-27T01:16:17.363Z,0
2018-07-27T01:17:17.627Z,0
2018-07-27T01:18:17.879Z,0
2018-07-27T01:19:17.621Z,0
2018-07-27T01:20:17.342Z,0
2018-07-27T01:21:18.127Z,0
2018-07-27T01:22:17.862Z,0
2018-07-27T01:23:18.108Z,0
2018-07-27T01:24:17.838Z,0
2018-07-27T01:25:17.841Z,0
2018-07-27T01:26:17.820Z,0
2018-07-27T01:27:17.551Z,0
2018-07-27T01:28:17.282Z,0
2018-07-27T01:29:17.849Z,0
2018-07-27T01:30:17.536Z,0
2018-07-27T01:31:18.050Z,0
2018-07-27T01:32:17.522Z,0
2018-07-27T01:33:17.776Z,0
2018-07-27T01:34:18.038Z,0
2018-07-27T01:35:17.761Z,0
2018-07-27T01:36:17.758Z,0
2018-07-27T01:37:18.011Z,0
2018-07-27T01:38:17.741Z,0
2018-07-27T01:39:17.734Z,0
2018-07-27T01:40:17.462Z,0
2018-07-27T01:41:17.468Z,0
2018-07-27T01:42:17.722Z,0
2018-07-27T01:43:17.703Z,0
2018-07-27T01:44:17.708Z,0
2018-07-27T01:45:17.450Z,0
2018-07-27T01:46:17.428Z,0
2018-07-27T01:47:17.685Z,0
2018-07-27T01:48:17.144Z,0
2018-07-27T01:49:17.928Z,0
2018-07-27T01:50:17.396Z,0
2018-07-27T01:51:17.656Z,0
2018-07-27T01:52:17.914Z,0
2018-07-27T01:53:17.130Z,0
2018-07-27T01:54:17.635Z,0
2018-07-27T01:55:17.883Z,0
2018-07-27T01:56:17.359Z,0
2018-07-27T01:57:17.627Z,0
2018-07-27T01:58:17.609Z,0
2018-07-27T01:59:17.859Z,0
2018-07-27T02:00:17.593Z,0
2018-07-27T02:01:17.858Z,0
2018-07-27T02:02:17.576Z,0
2018-07-27T02:03:17.836Z,0
2018-07-27T02:04:17.310Z,0
2018-07-27T02:05:17.605Z,0
2018-07-27T02:06:17.812Z,0
2018-07-27T02:07:17.857Z,0
2018-07-27T02:08:17.006Z,0
2018-07-27T02:09:17.528Z,0
2018-07-27T02:10:16.995Z,0
2018-07-27T02:11:17.565Z,0
2018-07-27T02:12:17.240Z,0
2018-07-27T02:13:17.245Z,0
2018-07-27T02:14:17.426Z,0
2018-07-27T02:15:17.267Z,0
2018-07-27T02:16:17.734Z,0
2018-07-27T02:17:17.476Z,0
2018-07-27T02:18:17.455Z,0
2018-07-27T02:19:17.454Z,0
2018-07-27T02:20:16.918Z,0
2018-07-27T02:21:17.723Z,0
2018-07-27T02:22:17.690Z,0
2018-07-27T02:23:17.700Z,0
2018-07-27T02:24:17.421Z,0
2018-07-27T02:25:17.418Z,0
2018-07-27T02:26:17.404Z,0
2018-07-27T02:27:16.866Z,0
2018-07-27T02:28:17.650Z,0
2018-07-27T02:29:17.391Z,0
2018-07-27T02:30:17.381Z,0
2018-07-27T02:31:17.101Z,0
2018-07-27T02:32:17.354Z,0
2018-07-27T02:33:17.362Z,0
2018-07-27T02:34:17.357Z,0
2018-07-27T02:35:17.078Z,0
2018-07-27T02:36:17.333Z,0
2018-07-27T02:37:17.074Z,0
2018-07-27T02:38:17.045Z,0
2018-07-27T02:39:17.371Z,0
2018-07-27T02:40:17.656Z,0
2018-07-27T02:41:17.314Z,0
2018-07-27T02:42:17.022Z,0
2018-07-27T02:43:17.278Z,0
2018-07-27T02:44:17.005Z,0
2018-07-27T02:45:17.272Z,0
2018-07-27T02:46:17.002Z,0
2018-07-27T02:47:17.248Z,0
2018-07-27T02:48:16.977Z,0
2018-07-27T02:49:17.235Z,0
2018-07-27T02:50:17.236Z,0
2018-07-27T02:51:17.352Z,0
2018-07-27T02:52:17.217Z,0
2018-07-27T02:53:16.940Z,0
2018-07-27T02:54:17.190Z,0
2018-07-27T02:55:16.916Z,0
2018-07-27T02:56:16.920Z,0
2018-07-27T02:57:17.449Z,0
2018-07-27T02:58:17.439Z,0
2018-07-27T02:59:16.885Z,0
2018-07-27T03:00:17.160Z,0
2018-07-27T03:01:16.876Z,0
2018-07-27T03:02:17.128Z,0
2018-07-27T03:03:16.860Z,0
2018-07-27T03:04:16.858Z,0
2018-07-27T03:05:16.846Z,0
2018-07-27T03:06:17.366Z,0
2018-07-27T03:07:17.099Z,0
2018-07-27T03:08:16.821Z,0
2018-07-27T03:09:17.358Z,4
2018-07-27T03:10:16.815Z,4
2018-07-27T03:11:17.076Z,0
2018-07-27T03:12:16.793Z,0
2018-07-27T03:13:17.042Z,4
2018-07-27T03:14:17.051Z,0
2018-07-27T03:15:17.025Z,4
2018-07-27T03:16:16.763Z,4
2018-07-27T03:17:17.321Z,4
2018-07-27T03:18:16.736Z,8
2018-07-27T03:19:16.995Z,4
2018-07-27T03:20:17.263Z,4
2018-07-27T03:21:16.457Z,8
2018-07-27T03:22:16.973Z,8
2018-07-27T03:23:17.234Z,12
2018-07-27T03:24:16.687Z,12
2018-07-27T03:25:16.946Z,16
2018-07-27T03:26:16.670Z,16
2018-07-27T03:27:16.937Z,16
2018-07-27T03:28:16.928Z,20
2018-07-27T03:29:17.175Z,24
2018-07-27T03:30:16.720Z,24
2018-07-27T03:31:17.161Z,28
2018-07-27T03:32:16.373Z,32
2018-07-27T03:33:16.622Z,36
2018-07-27T03:34:16.608Z,40
2018-07-27T03:35:16.871Z,48
2018-07-27T03:36:16.331Z,48
2018-07-27T03:37:16.580Z,56
2018-07-27T03:38:16.639Z,60
2018-07-27T03:39:16.569Z,72
2018-07-27T03:40:16.835Z,76
2018-07-27T03:41:16.821Z,84
2018-07-27T03:42:16.996Z,88
2018-07-27T03:43:16.537Z,96
2018-07-27T03:44:16.522Z,108
2018-07-27T03:45:17.054Z,116
2018-07-27T03:46:16.515Z,124
2018-07-27T03:47:16.500Z,136
2018-07-27T03:48:16.499Z,148
2018-07-27T03:49:16.743Z,156
2018-07-27T03:50:17.038Z,168
2018-07-27T03:51:16.462Z,180
2018-07-27T03:52:16.458Z,192
2018-07-27T03:53:16.707Z,204
2018-07-27T03:54:16.439Z,220
2018-07-27T03:55:16.426Z,232
2018-07-27T03:56:16.159Z,248
2018-07-27T03:57:16.671Z,256
2018-07-27T03:58:16.405Z,268
2018-07-27T03:59:16.131Z,284
2018-07-27T04:00:16.650Z,292
2018-07-27T04:01:16.645Z,308
2018-07-27T04:02:16.502Z,320
2018-07-27T04:03:16.631Z,336
2018-07-27T04:04:16.900Z,348
2018-07-27T04:05:16.623Z,360
2018-07-27T04:06:16.338Z,376
2018-07-27T04:07:16.959Z,388
2018-07-27T04:08:16.058Z,396
2018-07-27T04:09:16.840Z,408
2018-07-27T04:10:16.318Z,424
2018-07-27T04:11:16.348Z,440
2018-07-27T04:12:16.555Z,456
2018-07-27T04:13:16.304Z,472
2018-07-27T04:14:17.003Z,488
2018-07-27T04:15:16.791Z,508
2018-07-27T04:16:16.516Z,528
2018-07-27T04:17:16.774Z,556
2018-07-27T04:18:16.266Z,588
2018-07-27T04:19:16.488Z,632
2018-07-27T04:20:16.212Z,668
2018-07-27T04:21:16.734Z,704
2018-07-27T04:22:16.472Z,728
2018-07-27T04:23:16.453Z,748
2018-07-27T04:24:16.183Z,760
2018-07-27T04:25:16.175Z,780
2018-07-27T04:26:16.883Z,808
2018-07-27T04:27:15.897Z,832
2018-07-27T04:28:16.676Z,856
2018-07-27T04:29:16.145Z,892
2018-07-27T04:30:15.872Z,936
2018-07-27T04:31:16.389Z,964
2018-07-27T04:32:16.636Z,988
2018-07-27T04:33:16.116Z,1020
2018-07-27T04:34:16.627Z,1048
2018-07-27T04:35:16.353Z,1080
2018-07-27T04:36:16.341Z,1088
2018-07-27T04:37:16.336Z,1084
2018-07-27T04:38:16.062Z,1072
2018-07-27T04:39:15.800Z,1056
2018-07-27T04:40:15.788Z,1040
2018-07-27T04:41:16.582Z,1032
2018-07-27T04:42:16.303Z,1028
2018-07-27T04:43:16.550Z,1036
2018-07-27T04:44:16.282Z,1052
2018-07-27T04:45:16.011Z,1084
2018-07-27T04:46:16.008Z,1100
2018-07-27T04:47:16.253Z,1096
2018-07-27T04:48:16.516Z,1088
2018-07-27T04:49:16.244Z,1068
2018-07-27T04:50:16.227Z,1048
2018-07-27T04:51:16.481Z,1052
2018-07-27T04:52:15.944Z,1068
2018-07-27T04:53:16.203Z,1092
2018-07-27T04:54:15.926Z,1140
2018-07-27T04:55:15.913Z,1200
2018-07-27T04:56:16.544Z,1224
2018-07-27T04:57:15.904Z,1216
2018-07-27T04:58:16.170Z,1216
2018-07-27T04:59:15.883Z,1212
2018-07-27T05:00:15.874Z,1228
2018-07-27T05:01:15.607Z,1248
2018-07-27T05:02:16.134Z,1260
2018-07-27T05:03:16.112Z,1268
2018-07-27T05:04:16.113Z,1260
2018-07-27T05:05:16.107Z,1244
2018-07-27T05:06:16.091Z,1232
2018-07-27T05:07:15.565Z,1228
2018-07-27T05:08:16.079Z,1244
2018-07-27T05:09:16.066Z,1264
2018-07-27T05:10:15.792Z,1272
2018-07-27T05:11:16.058Z,1288
2018-07-27T05:12:16.316Z,1304
2018-07-27T05:13:15.766Z,1332
2018-07-27T05:14:15.767Z,1364
2018-07-27T05:15:15.754Z,1460
2018-07-27T05:16:16.014Z,1532
2018-07-27T05:17:16.003Z,1552
2018-07-27T05:18:15.822Z,1552
2018-07-27T05:19:15.989Z,1580
2018-07-27T05:20:15.724Z,1600
2018-07-27T05:21:15.709Z,1640
2018-07-27T05:22:15.961Z,1700
2018-07-27T05:23:15.951Z,1720
2018-07-27T05:24:16.252Z,1712
2018-07-27T05:25:15.681Z,1740
2018-07-27T05:26:15.669Z,1776
2018-07-27T05:27:15.921Z,1744
2018-07-27T05:28:16.179Z,1724
2018-07-27T05:29:15.908Z,1724
2018-07-27T05:30:15.639Z,1744
2018-07-27T05:31:15.623Z,1772
2018-07-27T05:32:16.147Z,1756
2018-07-27T05:33:15.873Z,1716
2018-07-27T05:34:15.928Z,1692
2018-07-27T05:35:15.869Z,1712
2018-07-27T05:36:16.115Z,1748
2018-07-27T05:37:15.848Z,1736
2018-07-27T05:38:15.832Z,1732
2018-07-27T05:39:15.822Z,1728
2018-07-27T05:40:15.549Z,1736
2018-07-27T05:41:15.814Z,1720
2018-07-27T05:42:15.550Z,1752
2018-07-27T05:43:15.529Z,1792
2018-07-27T05:44:15.528Z,1836
2018-07-27T05:45:16.042Z,1892
2018-07-27T05:46:15.779Z,1920
2018-07-27T05:47:15.916Z,1956
2018-07-27T05:48:15.237Z,1964
2018-07-27T05:49:15.760Z,1972
2018-07-27T05:50:15.481Z,2000
2018-07-27T05:51:15.736Z,2048
2018-07-27T05:52:15.465Z,2136
2018-07-27T05:53:15.509Z,2200
2018-07-27T05:54:15.455Z,2272
2018-07-27T05:55:15.446Z,2356
2018-07-27T05:56:15.976Z,2380
2018-07-27T05:57:15.437Z,2368
2018-07-27T05:58:15.691Z,2356
2018-07-27T05:59:15.688Z,2372
2018-07-27T06:00:15.408Z,2384
2018-07-27T06:01:15.443Z,2384
2018-07-27T06:02:17.786Z,2388
2018-07-27T06:03:15.386Z,2380
2018-07-27T06:04:15.654Z,2360
2018-07-27T06:05:15.381Z,2320
2018-07-27T06:06:15.626Z,2280
2018-07-27T06:07:15.887Z,2224
2018-07-27T06:08:15.618Z,2152
2018-07-27T06:09:15.612Z,2096
2018-07-27T06:10:15.596Z,2060
2018-07-27T06:11:16.183Z,2036
2018-07-27T06:12:15.851Z,2020
2018-07-27T06:13:15.579Z,2020
2018-07-27T06:14:15.516Z,2016
2018-07-27T06:15:15.314Z,2016
2018-07-27T06:16:15.297Z,2012
2018-07-27T06:17:15.027Z,2008
2018-07-27T06:18:16.041Z,2008
2018-07-27T06:19:15.275Z,2004
2018-07-27T06:20:15.531Z,2000
2018-07-27T06:21:15.266Z,2000
2018-07-27T06:22:15.258Z,2004
2018-07-27T06:23:15.512Z,2012
2018-07-27T06:24:15.115Z,2008
2018-07-27T06:25:15.764Z,1996
2018-07-27T06:26:15.757Z,1992
2018-07-27T06:27:15.232Z,1988
2018-07-27T06:28:15.698Z,1992
2018-07-27T06:29:15.963Z,1996
2018-07-27T06:30:15.206Z,2004
2018-07-27T06:31:15.742Z,2016
2018-07-27T06:32:15.187Z,2032
2018-07-27T06:33:14.923Z,2044
2018-07-27T06:34:15.438Z,2052
2018-07-27T06:35:14.921Z,2064
2018-07-27T06:36:15.690Z,2076
2018-07-27T06:37:15.160Z,2084
2018-07-27T06:38:15.425Z,2092
2018-07-27T06:39:16.027Z,2096
2018-07-27T06:40:15.407Z,2112
2018-07-27T06:41:15.672Z,2120
2018-07-27T06:42:15.651Z,2132
2018-07-27T06:43:15.395Z,2140
2018-07-27T06:44:15.643Z,2160
2018-07-27T06:45:15.555Z,2176
2018-07-27T06:46:15.370Z,2188
2018-07-27T06:47:14.831Z,2200
2018-07-27T06:48:15.360Z,2216
2018-07-27T06:49:15.109Z,2236
2018-07-27T06:50:15.335Z,2252
2018-07-27T06:51:15.364Z,2264
2018-07-27T06:52:15.323Z,2264
2018-07-27T06:53:15.061Z,2272
2018-07-27T06:54:15.048Z,2284
2018-07-27T06:55:15.569Z,2288
2018-07-27T06:56:15.041Z,2296
2018-07-27T06:57:14.770Z,2300
2018-07-27T06:58:14.759Z,2300
2018-07-27T06:59:15.294Z,2308
2018-07-27T07:00:14.749Z,2320
2018-07-27T07:01:14.744Z,2328
2018-07-27T07:02:15.264Z,2348
2018-07-27T07:03:15.265Z,2360
2018-07-27T07:04:14.990Z,2376
2018-07-27T07:05:15.262Z,2392
2018-07-27T07:06:14.985Z,2404
2018-07-27T07:07:15.236Z,2424
2018-07-27T07:08:14.975Z,2436
2018-07-27T07:09:15.540Z,2448
2018-07-27T07:10:15.489Z,2452
2018-07-27T07:11:15.213Z,2464
2018-07-27T07:12:15.483Z,2472
2018-07-27T07:13:14.675Z,2480
2018-07-27T07:14:15.191Z,2484
2018-07-27T07:15:15.190Z,2492
2018-07-27T07:16:14.917Z,2500
2018-07-27T07:17:15.444Z,2512
2018-07-27T07:18:15.179Z,2528
2018-07-27T07:19:15.442Z,2544
2018-07-27T07:20:15.167Z,2556
2018-07-27T07:21:14.893Z,2576
2018-07-27T07:22:14.886Z,2592
2018-07-27T07:23:14.886Z,2616
2018-07-27T07:24:15.139Z,2628
2018-07-27T07:25:14.690Z,2644
2018-07-27T07:26:16.005Z,2656
2018-07-27T07:27:14.856Z,2668
2018-07-27T07:28:15.118Z,2680
2018-07-27T07:29:15.397Z,2696
2018-07-27T07:30:14.579Z,2720
2018-07-27T07:31:15.373Z,2740
2018-07-27T07:32:15.099Z,2760
2018-07-27T07:33:14.984Z,2788
2018-07-27T07:34:14.831Z,2824
2018-07-27T07:35:14.827Z,6896
2018-07-27T07:36:15.071Z,24096
2018-07-27T07:37:15.369Z,34944
2018-07-27T07:38:15.070Z,38368
2018-07-27T07:39:15.768Z,38816
2018-07-27T07:40:15.322Z,39008
2018-07-27T07:41:15.058Z,38976
2018-07-27T07:42:14.826Z,36992
2018-07-27T07:43:15.052Z,34400
2018-07-27T07:44:15.316Z,34624
2018-07-27T07:45:15.327Z,36288
2018-07-27T07:46:15.036Z,36448
2018-07-27T07:47:14.774Z,36032
2018-07-27T07:48:14.768Z,35488
2018-07-27T07:49:14.786Z,36288
2018-07-27T07:50:15.025Z,37440
2018-07-27T07:51:14.502Z,37600
2018-07-27T07:52:15.298Z,38368
2018-07-27T07:53:15.290Z,40608
2018-07-27T07:54:15.023Z,41376
2018-07-27T07:55:15.024Z,38144
2018-07-27T07:56:14.763Z,33984
2018-07-27T07:57:15.032Z,31712
2018-07-27T07:58:15.291Z,32352
2018-07-27T07:59:14.766Z,33792
2018-07-27T08:00:15.041Z,36000
2018-07-27T08:01:14.496Z,38976
2018-07-27T08:02:14.769Z,41408
2018-07-27T08:03:15.036Z,41792
2018-07-27T08:04:15.184Z,40512
2018-07-27T08:05:15.311Z,40288
2018-07-27T08:06:14.783Z,42112
2018-07-27T08:07:15.314Z,43136
2018-07-27T08:08:15.049Z,41824
2018-07-27T08:09:15.058Z,40864
2018-07-27T08:10:15.050Z,42816
2018-07-27T08:11:15.287Z,46080
2018-07-27T08:12:15.054Z,47104
2018-07-27T08:13:14.809Z,45792
2018-07-27T08:14:15.326Z,45024
2018-07-27T08:15:15.079Z,44544
2018-07-27T08:16:15.329Z,43904
2018-07-27T08:17:15.166Z,42176
2018-07-27T08:18:14.822Z,42784
2018-07-27T08:19:15.369Z,46048
2018-07-27T08:20:15.357Z,49312
2018-07-27T08:21:15.116Z,50272
2018-07-27T08:22:14.829Z,49696
2018-07-27T08:23:14.837Z,48128
2018-07-27T08:24:15.380Z,45504
2018-07-27T08:25:14.851Z,43168
2018-07-27T08:26:15.118Z,41664
2018-07-27T08:27:14.859Z,36896
2018-07-27T08:28:15.125Z,40800
2018-07-27T08:29:15.447Z,53728
2018-07-27T08:30:14.875Z,56896
2018-07-27T08:31:15.417Z,43168
2018-07-27T08:32:14.875Z,52224
2018-07-27T08:33:14.883Z,47328
2018-07-27T08:34:15.158Z,43872
2018-07-27T08:35:14.897Z,42560
2018-07-27T08:36:14.900Z,43712
2018-07-27T08:37:14.902Z,47968
2018-07-27T08:38:15.446Z,51744
2018-07-27T08:39:14.912Z,52416
2018-07-27T08:40:14.930Z,50752
2018-07-27T08:41:14.927Z,47840
2018-07-27T08:42:15.194Z,45696
2018-07-27T08:43:14.937Z,34496
2018-07-27T08:44:15.220Z,33024
2018-07-27T08:45:15.474Z,20000
2018-07-27T08:46:15.215Z,8072
2018-07-27T08:47:15.695Z,3524
2018-07-27T08:48:14.954Z,5980
2018-07-27T08:49:14.698Z,3344
2018-07-27T08:50:15.235Z,6428
2018-07-27T08:51:15.241Z,3812
2018-07-27T08:52:15.234Z,3420
2018-07-27T08:53:14.978Z,3408
2018-07-27T08:54:15.246Z,3400
2018-07-27T08:55:15.272Z,3692
2018-07-27T08:56:14.989Z,3756
2018-07-27T08:57:15.518Z,3544
2018-07-27T08:58:15.253Z,3364
2018-07-27T08:59:15.521Z,3684
2018-07-27T09:00:15.009Z,4936
2018-07-27T09:01:15.528Z,5460
2018-07-27T09:02:14.999Z,14172
2018-07-27T09:03:15.535Z,18592
2018-07-27T09:04:15.266Z,15640
2018-07-27T09:05:15.017Z,10580
2018-07-27T09:06:15.007Z,12064
2018-07-27T09:07:15.270Z,26336
2018-07-27T09:08:15.006Z,31808
2018-07-27T09:09:15.277Z,28128
2018-07-27T09:10:15.345Z,14804
2018-07-27T09:11:15.533Z,15552
2018-07-27T09:12:15.543Z,4232
2018-07-27T09:13:15.276Z,5784
2018-07-27T09:14:15.005Z,14068
2018-07-27T09:15:15.275Z,29984
2018-07-27T09:16:15.269Z,25184
2018-07-27T09:17:14.765Z,13920
2018-07-27T09:18:15.326Z,18240
2018-07-27T09:19:14.748Z,4988
2018-07-27T09:20:15.005Z,5020
2018-07-27T09:21:15.287Z,6088
2018-07-27T09:22:15.273Z,10100
2018-07-27T09:23:15.540Z,10556
2018-07-27T09:24:15.227Z,8584
2018-07-27T09:25:16.366Z,15500
2018-07-27T09:26:15.281Z,22816
2018-07-27T09:27:15.014Z,22016
2018-07-27T09:28:15.264Z,28512
2018-07-27T09:29:15.016Z,40128
2018-07-27T09:30:15.269Z,7160
2018-07-27T09:31:15.281Z,3652
2018-07-27T09:32:15.588Z,4404
2018-07-27T09:33:15.017Z,4696
2018-07-27T09:34:14.831Z,5860
2018-07-27T09:35:15.468Z,6260
2018-07-27T09:36:15.011Z,5044
2018-07-27T09:37:15.265Z,4292
2018-07-27T09:38:15.263Z,3676
2018-07-27T09:39:15.528Z,3612
2018-07-27T09:40:15.005Z,3680
2018-07-27T09:41:15.269Z,3716
2018-07-27T09:42:15.525Z,4580
2018-07-27T09:43:15.275Z,3832
2018-07-27T09:44:15.265Z,3816
2018-07-27T09:45:15.517Z,3832
2018-07-27T09:46:14.991Z,4744
2018-07-27T09:47:15.271Z,4072
2018-07-27T09:48:14.730Z,4340
2018-07-27T09:49:15.518Z,5488
2018-07-27T09:50:15.259Z,5636
2018-07-27T09:51:15.279Z,6584
2018-07-27T09:52:14.991Z,5368
2018-07-27T09:53:14.987Z,3700
2018-07-27T09:54:15.263Z,3684
2018-07-27T09:55:15.273Z,3648
2018-07-27T09:56:15.529Z,3676
2018-07-27T09:57:15.522Z,3668
2018-07-27T09:58:15.250Z,5360
2018-07-27T09:59:14.986Z,7296
2018-07-27T10:00:15.237Z,4392
2018-07-27T10:01:15.275Z,12004
2018-07-27T10:02:15.496Z,20576
2018-07-27T10:03:15.231Z,2028
2018-07-27T10:04:14.966Z,2928
2018-07-27T10:05:14.992Z,3752
2018-07-27T10:06:15.500Z,6848
2018-07-27T10:07:14.990Z,8728
2018-07-27T10:08:15.504Z,7248
2018-07-27T10:09:14.988Z,13240
2018-07-27T10:10:14.969Z,7128
2018-07-27T10:11:14.989Z,4364
2018-07-27T10:12:15.218Z,3680
2018-07-27T10:13:14.967Z,3760
2018-07-27T10:14:14.698Z,4168
2018-07-27T10:15:15.216Z,3852
2018-07-27T10:16:14.956Z,3884
2018-07-27T10:17:15.488Z,2736
2018-07-27T10:18:14.944Z,3932
2018-07-27T10:19:15.212Z,4108
2018-07-27T10:20:15.478Z,4152
2018-07-27T10:21:15.525Z,4140
2018-07-27T10:22:15.200Z,4956
2018-07-27T10:23:15.202Z,7720
2018-07-27T10:24:15.094Z,6944
2018-07-27T10:25:15.203Z,6300
2018-07-27T10:26:15.466Z,13156
2018-07-27T10:27:14.931Z,7672
2018-07-27T10:28:15.187Z,16364
2018-07-27T10:29:14.923Z,8704
2018-07-27T10:30:15.190Z,7756
2018-07-27T10:31:15.280Z,16828
2018-07-27T10:32:14.926Z,58976
2018-07-27T10:33:15.456Z,79136
2018-07-27T10:34:15.185Z,86368
2018-07-27T10:35:14.660Z,85856
2018-07-27T10:36:14.657Z,82496
2018-07-27T10:37:14.656Z,78496
2018-07-27T10:38:14.921Z,77024
2018-07-27T10:39:15.194Z,78304
2018-07-27T10:40:15.452Z,82624
2018-07-27T10:41:15.194Z,88384
2018-07-27T10:42:14.668Z,94016
2018-07-27T10:43:15.468Z,98240
2018-07-27T10:44:14.673Z,101856
2018-07-27T10:45:15.257Z,103296
2018-07-27T10:46:15.218Z,102912
2018-07-27T10:47:15.211Z,100448
2018-07-27T10:48:15.478Z,96416
2018-07-27T10:49:14.958Z,91104
2018-07-27T10:50:15.031Z,86080
2018-07-27T10:51:14.710Z,84096
2018-07-27T10:52:15.255Z,87200
2018-07-27T10:53:15.517Z,93280
2018-07-27T10:54:14.981Z,99296
2018-07-27T10:55:15.037Z,104992
2018-07-27T10:56:15.262Z,105856
2018-07-27T10:57:15.269Z,101920
2018-07-27T10:58:15.010Z,92032
2018-07-27T10:59:15.278Z,82496
2018-07-27T11:00:15.548Z,74624
2018-07-27T11:01:15.317Z,70240
2018-07-27T11:02:15.329Z,72896
2018-07-27T11:03:15.322Z,79456
2018-07-27T11:04:15.325Z,86688
2018-07-27T11:05:15.068Z,94336
2018-07-27T11:06:15.084Z,100288
2018-07-27T11:07:15.609Z,101216
2018-07-27T11:08:15.089Z,96576
2018-07-27T11:09:15.364Z,88480
2018-07-27T11:10:15.628Z,79456
2018-07-27T11:11:15.662Z,72960
2018-07-27T11:12:15.382Z,66560
2018-07-27T11:13:15.401Z,65984
2018-07-27T11:14:15.402Z,70464
2018-07-27T11:15:14.890Z,78496
2018-07-27T11:16:15.211Z,86272
2018-07-27T11:17:15.225Z,92928
2018-07-27T11:18:15.227Z,98240
2018-07-27T11:19:15.444Z,101248
2018-07-27T11:20:15.486Z,102240
2018-07-27T11:21:15.463Z,100448
2018-07-27T11:22:15.205Z,97536
2018-07-27T11:23:15.489Z,94016
2018-07-27T11:24:15.234Z,91744
2018-07-27T11:25:15.507Z,88224
2018-07-27T11:26:14.985Z,85056
2018-07-27T11:27:15.262Z,83488
2018-07-27T11:28:15.804Z,83328
2018-07-27T11:29:15.537Z,82752
2018-07-27T11:30:15.831Z,81600
2018-07-27T11:31:15.314Z,82304
2018-07-27T11:32:15.314Z,85216
2018-07-27T11:33:15.321Z,86656
2018-07-27T11:34:15.592Z,89152
2018-07-27T11:35:15.610Z,90528
2018-07-27T11:36:15.090Z,89344
2018-07-27T11:37:15.481Z,88576
2018-07-27T11:38:15.629Z,87872
2018-07-27T11:39:15.373Z,87232
2018-07-27T11:40:15.664Z,87520
2018-07-27T11:41:15.662Z,88192
2018-07-27T11:42:15.758Z,89504
2018-07-27T11:43:15.694Z,90208
2018-07-27T11:44:15.695Z,88544
2018-07-27T11:45:15.446Z,87808
2018-07-27T11:46:15.721Z,89344
2018-07-27T11:47:15.200Z,89184
2018-07-27T11:48:15.736Z,90688
2018-07-27T11:49:16.015Z,93760
2018-07-27T11:50:15.499Z,95712
2018-07-27T11:51:15.239Z,92768
2018-07-27T11:52:15.783Z,88192
2018-07-27T11:53:15.791Z,85568
2018-07-27T11:54:15.797Z,84864
2018-07-27T11:55:15.812Z,84544
2018-07-27T11:56:15.550Z,85216
2018-07-27T11:57:15.838Z,87616
2018-07-27T11:58:15.582Z,91424
2018-07-27T11:59:15.861Z,89472
2018-07-27T12:00:15.987Z,91520
2018-07-27T12:01:15.623Z,92256
2018-07-27T12:02:15.892Z,91296
2018-07-27T12:03:15.636Z,91072
2018-07-27T12:04:15.919Z,88864
2018-07-27T12:05:16.186Z,86944
2018-07-27T12:06:15.937Z,86016
2018-07-27T12:07:16.125Z,85312
2018-07-27T12:08:15.432Z,83424
2018-07-27T12:09:16.232Z,82720
2018-07-27T12:10:15.455Z,80480
2018-07-27T12:11:15.994Z,77472
2018-07-27T12:12:15.731Z,76160
2018-07-27T12:13:16.017Z,76288
2018-07-27T12:14:16.320Z,73504
2018-07-27T12:15:16.715Z,74368
2018-07-27T12:16:15.516Z,80448
2018-07-27T12:17:15.796Z,86912
2018-07-27T12:18:15.809Z,92928
2018-07-27T12:19:16.356Z,94560
2018-07-27T12:20:16.102Z,90528
2018-07-27T12:21:16.181Z,86208
2018-07-27T12:22:16.112Z,81184
2018-07-27T12:23:16.383Z,77632
2018-07-27T12:24:16.399Z,75168
2018-07-27T12:25:16.153Z,78240
2018-07-27T12:26:15.907Z,83712
2018-07-27T12:27:16.608Z,88672
2018-07-27T12:28:16.195Z,94048
2018-07-27T12:29:16.244Z,97568
2018-07-27T12:30:16.199Z,98368
2018-07-27T12:31:16.222Z,95264
2018-07-27T12:32:15.970Z,89184
2018-07-27T12:33:15.975Z,80960
2018-07-27T12:34:15.990Z,74816
2018-07-27T12:35:16.044Z,72576
2018-07-27T12:36:16.024Z,77504
2018-07-27T12:37:16.558Z,85056
2018-07-27T12:38:16.354Z,90688
2018-07-27T12:39:16.585Z,94080
2018-07-27T12:40:16.330Z,94752
2018-07-27T12:41:16.072Z,93728
2018-07-27T12:42:16.342Z,88768
2018-07-27T12:43:16.356Z,85600
2018-07-27T12:44:16.370Z,83040
2018-07-27T12:45:15.858Z,79232
2018-07-27T12:46:16.394Z,72672
2018-07-27T12:47:16.667Z,66752
2018-07-27T12:48:16.419Z,65056
2018-07-27T12:49:16.439Z,62048
2018-07-27T12:50:16.698Z,59040
2018-07-27T12:51:16.292Z,63584
2018-07-27T12:52:16.201Z,74080
2018-07-27T12:53:16.215Z,82336
2018-07-27T12:54:16.218Z,89312
2018-07-27T12:55:16.756Z,94336
2018-07-27T12:56:16.508Z,95040
2018-07-27T12:57:16.254Z,88480
2018-07-27T12:58:16.540Z,80256
2018-07-27T12:59:16.279Z,70976
2018-07-27T13:00:16.555Z,63104
2018-07-27T13:01:16.299Z,60512
2018-07-27T13:02:16.594Z,63552
2018-07-27T13:03:16.876Z,70336
2018-07-27T13:04:16.860Z,76512
2018-07-27T13:05:17.245Z,79520
2018-07-27T13:06:16.634Z,80960
2018-07-27T13:07:16.637Z,79424
2018-07-27T13:08:16.650Z,77984
2018-07-27T13:09:16.399Z,77216
2018-07-27T13:10:16.949Z,77280
2018-07-27T13:11:16.961Z,78912
2018-07-27T13:12:16.708Z,82080
2018-07-27T13:13:16.512Z,84512
2018-07-27T13:14:16.713Z,85120
2018-07-27T13:15:16.994Z,83296
2018-07-27T13:16:17.012Z,82176
2018-07-27T13:17:16.482Z,82144
2018-07-27T13:18:17.025Z,79808
2018-07-27T13:19:16.772Z,79808
2018-07-27T13:20:16.520Z,82912
2018-07-27T13:21:16.532Z,87840
2018-07-27T13:22:17.544Z,94016
2018-07-27T13:23:16.830Z,98816
2018-07-27T13:24:16.831Z,99712
2018-07-27T13:25:17.010Z,100448
2018-07-27T13:26:31.864Z,97472
2018-07-27T13:27:16.879Z,94432
2018-07-27T13:28:16.880Z,89760
2018-07-27T13:29:16.631Z,86432
2018-07-27T13:30:16.639Z,82496
2018-07-27T13:31:16.388Z,78848
2018-07-27T13:32:16.930Z,79872